createdAt,value
2022-10-01T00:00:47.681Z,100.00
2022-10-01T00:06:09.823Z,100.00
2022-10-01T00:11:14.669Z,100.00
2022-10-01T00:16:20.457Z,100.00
2022-10-01T00:21:25.662Z,100.00
2022-10-01T00:26:31.276Z,100.00
2022-10-01T00:31:34.361Z,100.00
2022-10-01T00:36:36.805Z,100.00
2022-10-01T00:41:39.237Z,100.00
2022-10-01T00:46:44.209Z,100.00
2022-10-01T00:52:09.885Z,100.00
2022-10-01T00:57:15.404Z,100.00
2022-10-01T01:02:17.839Z,100.00
2022-10-01T01:07:20.899Z,100.00
2022-10-01T01:12:48.541Z,100.00
2022-10-01T01:18:02.758Z,100.00
2022-10-01T01:23:17.075Z,100.00
2022-10-01T01:28:19.565Z,100.00
2022-10-01T01:33:25.255Z,100.00
2022-10-01T01:38:34.438Z,100.00
2022-10-01T01:43:45.062Z,100.00
2022-10-01T01:48:51.224Z,100.00
2022-10-01T01:53:54.533Z,100.00
2022-10-01T01:58:58.730Z,100.00
2022-10-01T02:04:04.732Z,100.00
2022-10-01T02:09:28.362Z,100.00
2022-10-01T02:14:57.387Z,100.00
2022-10-01T02:20:15.801Z,100.00
2022-10-01T02:25:26.513Z,100.00
2022-10-01T02:30:31.452Z,100.00
2022-10-01T02:35:36.720Z,100.00
2022-10-01T02:40:43.122Z,100.00
2022-10-01T02:45:57.901Z,100.00
2022-10-01T02:51:29.166Z,100.00
2022-10-01T02:56:53.265Z,100.00
2022-10-01T03:01:58.660Z,100.00
2022-10-01T03:07:04.110Z,100.00
2022-10-01T03:12:06.846Z,100.00
2022-10-01T03:17:09.188Z,100.00
2022-10-01T03:22:14.254Z,100.00
2022-10-01T03:27:17.815Z,100.00
2022-10-01T03:32:20.666Z,100.00
2022-10-01T03:37:22.734Z,100.00
2022-10-01T03:42:24.860Z,100.00
2022-10-01T03:47:27.059Z,100.00
2022-10-01T03:52:29.342Z,100.00
2022-10-01T03:57:31.417Z,100.00
2022-10-01T04:02:33.654Z,100.00
2022-10-01T04:07:36.089Z,100.00
2022-10-01T04:12:38.577Z,100.00
2022-10-01T04:17:45.125Z,100.00
2022-10-01T04:22:48.222Z,100.00
2022-10-01T04:27:59.889Z,100.00
2022-10-01T04:33:02.519Z,100.00
2022-10-01T04:38:07.680Z,100.00
2022-10-01T04:43:12.832Z,100.00
2022-10-01T04:48:15.226Z,100.00
2022-10-01T04:53:17.602Z,100.00
2022-10-01T04:58:19.788Z,100.00
2022-10-01T05:03:21.864Z,100.00
2022-10-01T05:08:29.486Z,100.00
2022-10-01T05:13:32.184Z,100.00
2022-10-01T05:18:34.271Z,100.00
2022-10-01T05:23:36.346Z,100.00
2022-10-01T05:28:43.476Z,100.00
2022-10-01T05:33:47.877Z,100.00
2022-10-01T05:38:53.114Z,100.00
2022-10-01T05:43:55.556Z,100.00
2022-10-01T05:48:57.615Z,100.00
2022-10-01T05:54:01.390Z,100.00
2022-10-01T05:59:04.910Z,100.00
2022-10-01T06:04:06.997Z,100.00
2022-10-01T06:09:09.207Z,100.00
2022-10-01T06:14:11.387Z,76.33
2022-10-01T06:19:13.485Z,45.20
2022-10-01T06:24:15.674Z,37.73
2022-10-01T06:29:17.713Z,35.49
2022-10-01T06:34:20.018Z,33.92
2022-10-01T06:39:22.070Z,32.70
2022-10-01T06:44:24.365Z,33.11
2022-10-01T06:49:27.171Z,33.63
2022-10-01T06:54:29.627Z,33.74
2022-10-01T06:59:31.874Z,40.86
2022-10-01T07:04:34.181Z,45.28
2022-10-01T07:09:36.439Z,52.53
2022-10-01T07:14:38.684Z,56.61
2022-10-01T07:19:40.786Z,53.11
2022-10-01T07:24:43.255Z,48.73
2022-10-01T07:29:45.802Z,49.50
2022-10-01T07:34:47.892Z,50.09
2022-10-01T07:39:50.059Z,41.87
2022-10-01T07:44:52.292Z,39.30
2022-10-01T07:49:54.339Z,39.21
2022-10-01T07:54:56.479Z,37.06
2022-10-01T07:59:58.766Z,37.54
2022-10-01T08:05:19.359Z,37.04
2022-10-01T08:10:23.472Z,34.35
2022-10-01T08:15:25.519Z,32.79
2022-10-01T08:20:28.429Z,26.32
2022-10-01T08:25:31.217Z,27.52
2022-10-01T08:30:33.857Z,27.09
2022-10-01T08:35:39.565Z,25.05
2022-10-01T08:40:50.126Z,26.33
2022-10-01T08:45:54.928Z,24.33
2022-10-01T08:51:24.889Z,24.13
2022-10-01T08:56:34.483Z,23.77
2022-10-01T09:01:37.208Z,22.70
2022-10-01T09:06:40.195Z,22.68
2022-10-01T09:11:45.342Z,22.89
2022-10-01T09:16:56.560Z,24.44
2022-10-01T09:22:02.366Z,25.20
2022-10-01T09:27:15.573Z,27.24
2022-10-01T09:32:26.890Z,27.60
2022-10-01T09:37:29.135Z,26.64
2022-10-01T09:42:31.814Z,28.22
2022-10-01T09:47:34.690Z,28.54
2022-10-01T09:52:39.910Z,30.16
2022-10-01T09:57:47.854Z,30.55
2022-10-01T10:02:52.367Z,30.33
2022-10-01T10:07:58.898Z,30.78
2022-10-01T10:13:24.646Z,30.98
2022-10-01T10:18:35.714Z,30.47
2022-10-01T10:24:07.011Z,30.60
2022-10-01T10:29:26.493Z,30.02
2022-10-01T10:34:36.235Z,30.63
2022-10-01T10:39:41.723Z,31.12
2022-10-01T10:44:47.574Z,29.85
2022-10-01T10:49:56.993Z,29.56
2022-10-01T10:55:01.015Z,30.53
2022-10-01T11:00:22.891Z,30.95
2022-10-01T11:05:29.290Z,32.43
2022-10-01T11:10:53.523Z,33.16
2022-10-01T11:16:25.842Z,33.57
2022-10-01T11:21:48.862Z,34.22
2022-10-01T11:26:55.977Z,35.98
2022-10-01T11:32:04.994Z,36.57
2022-10-01T11:37:24.441Z,36.37
2022-10-01T11:42:36.861Z,36.66
2022-10-01T11:47:45.278Z,37.86
2022-10-01T11:53:19.286Z,37.20
2022-10-01T11:58:51.546Z,38.74
2022-10-01T12:03:53.777Z,37.71
2022-10-01T12:09:06.548Z,38.43
2022-10-01T12:14:25.854Z,37.22
2022-10-01T12:19:37.000Z,37.37
2022-10-01T12:24:44.898Z,38.74
2022-10-01T12:30:03.575Z,39.72
2022-10-01T12:35:40.173Z,38.45
2022-10-01T12:40:51.563Z,39.16
2022-10-01T12:46:10.199Z,39.59
2022-10-01T12:51:39.203Z,41.10
2022-10-01T12:56:49.017Z,40.75
2022-10-01T13:02:42.249Z,41.17
2022-10-01T13:07:55.110Z,40.31
2022-10-01T13:13:12.303Z,41.12
2022-10-01T13:18:26.888Z,41.43
2022-10-01T13:23:33.617Z,40.23
2022-10-01T13:28:54.732Z,40.00
2022-10-01T13:33:57.572Z,40.40
2022-10-01T13:39:01.749Z,46.71
2022-10-01T13:44:11.248Z,43.40
2022-10-01T13:49:31.102Z,50.66
2022-10-01T13:54:33.354Z,53.67
2022-10-01T13:59:37.566Z,56.57
2022-10-01T14:04:43.676Z,59.48
2022-10-01T14:09:50.668Z,56.68
2022-10-01T14:15:17.310Z,59.53
2022-10-01T14:20:23.716Z,64.52
2022-10-01T14:25:57.019Z,67.52
2022-10-01T14:31:08.924Z,69.29
2022-10-01T14:36:26.035Z,68.46
2022-10-01T14:41:35.106Z,68.66
2022-10-01T14:46:37.827Z,75.44
2022-10-01T14:51:51.776Z,74.68
2022-10-01T14:56:55.253Z,73.50
2022-10-01T15:02:03.433Z,74.66
2022-10-01T15:07:14.171Z,80.23
2022-10-01T15:12:19.590Z,87.73
2022-10-01T15:17:45.595Z,84.72
2022-10-01T15:22:50.660Z,95.44
2022-10-01T15:27:56.900Z,90.36
2022-10-01T15:32:59.366Z,85.28
2022-10-01T15:38:01.889Z,85.86
2022-10-01T15:43:23.039Z,87.68
2022-10-01T15:48:30.343Z,99.54
2022-10-01T15:53:34.373Z,100.00
2022-10-01T15:58:43.571Z,97.88
2022-10-01T16:03:55.032Z,92.59
2022-10-01T16:09:31.070Z,100.00
2022-10-01T16:14:44.185Z,93.17
2022-10-01T16:19:51.693Z,100.00
2022-10-01T16:25:03.634Z,95.79
2022-10-01T16:30:08.787Z,100.00
2022-10-01T16:35:25.528Z,96.57
2022-10-01T16:40:31.189Z,99.83
2022-10-01T16:45:43.120Z,96.70
2022-10-01T16:50:49.044Z,98.11
2022-10-01T16:55:56.596Z,100.00
2022-10-01T17:00:58.988Z,96.64
2022-10-01T17:06:01.174Z,96.65
2022-10-01T17:11:04.018Z,96.48
2022-10-01T17:16:06.815Z,96.99
2022-10-01T17:21:09.726Z,97.68
2022-10-01T17:26:13.093Z,96.12
2022-10-01T17:31:18.035Z,95.27
2022-10-01T17:36:20.371Z,96.85
2022-10-01T17:41:22.584Z,98.85
2022-10-01T17:46:24.900Z,98.85
2022-10-01T17:51:27.428Z,100.00
2022-10-01T17:56:33.126Z,100.00
2022-10-01T18:01:35.678Z,100.00
2022-10-01T18:06:38.121Z,100.00
2022-10-01T18:11:40.345Z,100.00
2022-10-01T18:16:42.493Z,100.00
2022-10-01T18:21:44.707Z,100.00
2022-10-01T18:26:47.021Z,100.00
2022-10-01T18:32:07.498Z,100.00
2022-10-01T18:37:40.632Z,100.00
2022-10-01T18:42:54.725Z,100.00
2022-10-01T18:47:56.979Z,100.00
2022-10-01T18:53:02.301Z,100.00
2022-10-01T18:58:20.006Z,100.00
2022-10-01T19:04:03.655Z,100.00
2022-10-01T19:09:15.267Z,100.00
2022-10-01T19:14:44.280Z,100.00
2022-10-01T19:20:05.407Z,100.00
2022-10-01T19:25:33.487Z,100.00
2022-10-01T19:31:08.086Z,100.00
2022-10-01T19:36:24.558Z,100.00
2022-10-01T19:41:43.499Z,100.00
2022-10-01T19:46:49.787Z,100.00
2022-10-01T19:52:12.327Z,100.00
2022-10-01T19:57:23.714Z,100.00
2022-10-01T20:02:35.562Z,100.00
2022-10-01T20:07:47.027Z,100.00
2022-10-01T20:13:27.057Z,100.00
2022-10-01T20:18:54.154Z,100.00
2022-10-01T20:24:13.627Z,100.00
2022-10-01T20:29:38.275Z,96.29
2022-10-01T20:34:54.875Z,92.70
2022-10-01T20:40:05.722Z,82.17
2022-10-01T20:45:15.357Z,73.63
2022-10-01T20:50:44.104Z,69.12
2022-10-01T20:55:52.218Z,60.62
2022-10-01T21:01:10.417Z,56.53
2022-10-01T21:06:18.768Z,52.63
2022-10-01T21:11:39.972Z,50.90
2022-10-01T21:17:11.314Z,48.78
2022-10-01T21:22:23.480Z,49.31
2022-10-01T21:27:31.571Z,46.57
2022-10-01T21:32:58.860Z,43.22
2022-10-01T21:38:15.505Z,51.77
2022-10-01T21:43:36.596Z,62.76
2022-10-01T21:49:17.774Z,76.93
2022-10-01T21:54:52.191Z,81.10
2022-10-01T22:00:30.982Z,83.47
2022-10-01T22:05:50.471Z,85.62
2022-10-01T22:10:56.814Z,88.28
2022-10-01T22:16:07.448Z,95.35
2022-10-01T22:21:13.469Z,100.00
2022-10-01T22:26:19.976Z,100.00
2022-10-01T22:31:28.000Z,100.00
2022-10-01T22:36:36.645Z,100.00
2022-10-01T22:41:52.423Z,100.00
2022-10-01T22:47:28.683Z,100.00
2022-10-01T22:52:54.046Z,100.00
2022-10-01T22:58:21.921Z,100.00
2022-10-01T23:04:09.293Z,100.00
2022-10-01T23:09:20.195Z,100.00
2022-10-01T23:14:41.477Z,100.00
2022-10-01T23:20:01.929Z,100.00
2022-10-01T23:25:44.406Z,100.00
2022-10-01T23:30:58.660Z,100.00
2022-10-01T23:36:13.778Z,100.00
2022-10-01T23:41:25.646Z,100.00
2022-10-01T23:46:31.962Z,100.00
2022-10-01T23:51:55.810Z,100.00
2022-10-01T23:57:21.885Z,100.00
